sensor_id;sensor_type;location;lat;lon;timestamp;temperature;humidity
47252;DHT22;32991;51.374;11.586;2022-12-07T00:01:43;0.30;99.90
47252;DHT22;32991;51.374;11.586;2022-12-07T00:04:12;0.30;99.90
47252;DHT22;32991;51.374;11.586;2022-12-07T00:06:40;0.30;99.90
47252;DHT22;32991;51.374;11.586;2022-12-07T00:09:09;0.30;99.90
47252;DHT22;32991;51.374;11.586;2022-12-07T00:11:36;0.20;99.90
47252;DHT22;32991;51.374;11.586;2022-12-07T00:14:05;0.20;99.90
47252;DHT22;32991;51.374;11.586;2022-12-07T00:16:33;0.20;99.90
47252;DHT22;32991;51.374;11.586;2022-12-07T00:19:00;0.20;99.90
47252;DHT22;32991;51.374;11.586;2022-12-07T00:21:28;0.20;99.90
47252;DHT22;32991;51.374;11.586;2022-12-07T00:23:55;0.20;99.90
47252;DHT22;32991;51.374;11.586;2022-12-07T00:28:59;0.10;99.90
47252;DHT22;32991;51.374;11.586;2022-12-07T00:31:28;0.20;99.90
47252;DHT22;32991;51.374;11.586;2022-12-07T00:33:55;0.10;99.90
47252;DHT22;32991;51.374;11.586;2022-12-07T00:36:22;0.20;99.90
47252;DHT22;32991;51.374;11.586;2022-12-07T00:38:53;0.20;99.90
47252;DHT22;32991;51.374;11.586;2022-12-07T00:41:21;0.20;99.90
47252;DHT22;32991;51.374;11.586;2022-12-07T00:43:48;0.20;99.90
47252;DHT22;32991;51.374;11.586;2022-12-07T00:46:15;0.10;99.90
47252;DHT22;32991;51.374;11.586;2022-12-07T00:48:42;0.10;99.90
47252;DHT22;32991;51.374;11.586;2022-12-07T00:51:10;0.10;99.90
47252;DHT22;32991;51.374;11.586;2022-12-07T00:53:37;0.20;99.90
47252;DHT22;32991;51.374;11.586;2022-12-07T00:56:14;0.20;99.90
47252;DHT22;32991;51.374;11.586;2022-12-07T00:58:41;0.30;99.90
47252;DHT22;32991;51.374;11.586;2022-12-07T01:01:08;0.40;99.90
47252;DHT22;32991;51.374;11.586;2022-12-07T01:03:36;0.50;99.90
47252;DHT22;32991;51.374;11.586;2022-12-07T01:06:03;0.60;99.90
47252;DHT22;32991;51.374;11.586;2022-12-07T01:08:29;0.70;99.90
47252;DHT22;32991;51.374;11.586;2022-12-07T01:11:00;0.70;99.90
47252;DHT22;32991;51.374;11.586;2022-12-07T01:13:27;0.80;99.90
47252;DHT22;32991;51.374;11.586;2022-12-07T01:15:59;0.80;99.90
47252;DHT22;32991;51.374;11.586;2022-12-07T01:18:29;0.80;99.90
47252;DHT22;32991;51.374;11.586;2022-12-07T01:21:00;0.80;99.90
47252;DHT22;32991;51.374;11.586;2022-12-07T01:23:27;0.80;99.90
47252;DHT22;32991;51.374;11.586;2022-12-07T01:25:54;0.90;99.90
47252;DHT22;32991;51.374;11.586;2022-12-07T01:28:21;0.90;99.90
47252;DHT22;32991;51.374;11.586;2022-12-07T01:30:55;0.90;99.90
47252;DHT22;32991;51.374;11.586;2022-12-07T01:33:22;0.90;99.90
47252;DHT22;32991;51.374;11.586;2022-12-07T01:35:48;0.90;99.90
47252;DHT22;32991;51.374;11.586;2022-12-07T01:38:15;0.90;99.90
47252;DHT22;32991;51.374;11.586;2022-12-07T01:40:42;0.90;99.90
47252;DHT22;32991;51.374;11.586;2022-12-07T01:43:17;0.90;99.90
47252;DHT22;32991;51.374;11.586;2022-12-07T01:45:45;1.00;99.90
47252;DHT22;32991;51.374;11.586;2022-12-07T01:48:13;1.00;99.90
47252;DHT22;32991;51.374;11.586;2022-12-07T01:50:41;1.00;99.90
47252;DHT22;32991;51.374;11.586;2022-12-07T01:53:09;1.00;99.90
47252;DHT22;32991;51.374;11.586;2022-12-07T01:55:37;1.00;99.90
47252;DHT22;32991;51.374;11.586;2022-12-07T01:58:04;1.00;99.90
47252;DHT22;32991;51.374;11.586;2022-12-07T02:00:31;1.00;99.90
47252;DHT22;32991;51.374;11.586;2022-12-07T02:03:04;1.00;99.90
47252;DHT22;32991;51.374;11.586;2022-12-07T02:05:32;1.00;99.90
47252;DHT22;32991;51.374;11.586;2022-12-07T02:07:59;1.10;99.90
47252;DHT22;32991;51.374;11.586;2022-12-07T02:10:27;1.00;99.90
47252;DHT22;32991;51.374;11.586;2022-12-07T02:13:13;1.00;99.90
47252;DHT22;32991;51.374;11.586;2022-12-07T02:21:11;1.00;99.90
47252;DHT22;32991;51.374;11.586;2022-12-07T02:31:19;1.10;99.90
47252;DHT22;32991;51.374;11.586;2022-12-07T02:33:49;1.10;99.90
47252;DHT22;32991;51.374;11.586;2022-12-07T02:36:19;1.10;99.90
47252;DHT22;32991;51.374;11.586;2022-12-07T02:41:20;1.20;99.90
47252;DHT22;32991;51.374;11.586;2022-12-07T02:43:52;1.20;99.90
47252;DHT22;32991;51.374;11.586;2022-12-07T02:46:21;1.30;99.90
47252;DHT22;32991;51.374;11.586;2022-12-07T02:48:48;1.30;99.90
47252;DHT22;32991;51.374;11.586;2022-12-07T02:51:17;1.30;99.90
47252;DHT22;32991;51.374;11.586;2022-12-07T02:53:44;1.30;99.90
47252;DHT22;32991;51.374;11.586;2022-12-07T02:58:46;1.40;99.90
47252;DHT22;32991;51.374;11.586;2022-12-07T03:01:25;1.40;99.90
47252;DHT22;32991;51.374;11.586;2022-12-07T03:04:01;1.40;99.90
47252;DHT22;32991;51.374;11.586;2022-12-07T03:06:31;1.40;99.90
47252;DHT22;32991;51.374;11.586;2022-12-07T03:14:11;1.40;99.90
47252;DHT22;32991;51.374;11.586;2022-12-07T03:16:49;1.50;99.90
47252;DHT22;32991;51.374;11.586;2022-12-07T03:19:19;1.50;99.90
47252;DHT22;32991;51.374;11.586;2022-12-07T03:21:49;1.50;99.90
47252;DHT22;32991;51.374;11.586;2022-12-07T03:24:19;1.60;99.90
47252;DHT22;32991;51.374;11.586;2022-12-07T03:29:34;1.60;99.90
47252;DHT22;32991;51.374;11.586;2022-12-07T03:32:10;1.60;99.90
47252;DHT22;32991;51.374;11.586;2022-12-07T03:34:44;1.60;99.90
47252;DHT22;32991;51.374;11.586;2022-12-07T03:37:14;1.60;99.90
47252;DHT22;32991;51.374;11.586;2022-12-07T03:39:56;1.60;99.90
47252;DHT22;32991;51.374;11.586;2022-12-07T03:42:24;1.70;99.90
47252;DHT22;32991;51.374;11.586;2022-12-07T03:44:51;1.60;99.90
47252;DHT22;32991;51.374;11.586;2022-12-07T03:52:22;1.60;99.90
47252;DHT22;32991;51.374;11.586;2022-12-07T03:54:58;1.60;99.90
47252;DHT22;32991;51.374;11.586;2022-12-07T03:57:26;1.60;99.90
47252;DHT22;32991;51.374;11.586;2022-12-07T03:59:55;1.60;99.90
47252;DHT22;32991;51.374;11.586;2022-12-07T04:02:22;1.70;99.90
47252;DHT22;32991;51.374;11.586;2022-12-07T04:04:49;1.60;99.90
47252;DHT22;32991;51.374;11.586;2022-12-07T04:07:16;1.70;99.90
47252;DHT22;32991;51.374;11.586;2022-12-07T04:09:43;1.70;99.90
47252;DHT22;32991;51.374;11.586;2022-12-07T04:12:10;1.70;99.90
47252;DHT22;32991;51.374;11.586;2022-12-07T04:14:37;1.60;99.90
47252;DHT22;32991;51.374;11.586;2022-12-07T04:17:03;1.60;99.90
47252;DHT22;32991;51.374;11.586;2022-12-07T04:19:31;1.60;99.90
47252;DHT22;32991;51.374;11.586;2022-12-07T04:21:59;1.60;99.90
47252;DHT22;32991;51.374;11.586;2022-12-07T04:24:26;1.60;99.90
47252;DHT22;32991;51.374;11.586;2022-12-07T04:26:53;1.60;99.90
47252;DHT22;32991;51.374;11.586;2022-12-07T04:29:20;1.50;99.90
47252;DHT22;32991;51.374;11.586;2022-12-07T04:31:47;1.50;99.90
47252;DHT22;32991;51.374;11.586;2022-12-07T04:34:14;1.50;99.90
47252;DHT22;32991;51.374;11.586;2022-12-07T04:36:42;1.50;99.90
47252;DHT22;32991;51.374;11.586;2022-12-07T04:39:13;1.50;99.90
47252;DHT22;32991;51.374;11.586;2022-12-07T04:41:43;1.50;99.90
47252;DHT22;32991;51.374;11.586;2022-12-07T04:44:10;1.50;99.90
47252;DHT22;32991;51.374;11.586;2022-12-07T04:46:40;1.50;99.90
47252;DHT22;32991;51.374;11.586;2022-12-07T04:49:08;1.60;99.90
47252;DHT22;32991;51.374;11.586;2022-12-07T04:51:35;1.60;99.90
47252;DHT22;32991;51.374;11.586;2022-12-07T04:54:01;1.60;99.90
47252;DHT22;32991;51.374;11.586;2022-12-07T04:56:28;1.60;99.90
47252;DHT22;32991;51.374;11.586;2022-12-07T04:58:55;1.60;99.90
47252;DHT22;32991;51.374;11.586;2022-12-07T05:01:22;1.60;99.90
47252;DHT22;32991;51.374;11.586;2022-12-07T05:03:50;1.70;99.90
47252;DHT22;32991;51.374;11.586;2022-12-07T05:06:17;1.60;99.90
47252;DHT22;32991;51.374;11.586;2022-12-07T05:08:43;1.70;99.90
47252;DHT22;32991;51.374;11.586;2022-12-07T05:11:10;1.70;99.90
47252;DHT22;32991;51.374;11.586;2022-12-07T05:14:01;1.70;99.90
47252;DHT22;32991;51.374;11.586;2022-12-07T05:16:27;1.70;99.90
47252;DHT22;32991;51.374;11.586;2022-12-07T05:18:54;1.70;99.90
47252;DHT22;32991;51.374;11.586;2022-12-07T05:21:21;1.70;99.90
47252;DHT22;32991;51.374;11.586;2022-12-07T05:23:48;1.70;99.90
47252;DHT22;32991;51.374;11.586;2022-12-07T05:26:15;1.70;99.90
47252;DHT22;32991;51.374;11.586;2022-12-07T05:28:42;1.80;99.90
47252;DHT22;32991;51.374;11.586;2022-12-07T05:31:08;1.80;99.90
47252;DHT22;32991;51.374;11.586;2022-12-07T05:33:35;1.80;99.90
47252;DHT22;32991;51.374;11.586;2022-12-07T05:36:02;1.80;99.90
47252;DHT22;32991;51.374;11.586;2022-12-07T05:38:32;1.80;99.90
47252;DHT22;32991;51.374;11.586;2022-12-07T05:41:02;1.80;99.90
47252;DHT22;32991;51.374;11.586;2022-12-07T05:43:29;1.80;99.90
47252;DHT22;32991;51.374;11.586;2022-12-07T05:45:56;1.80;99.90
47252;DHT22;32991;51.374;11.586;2022-12-07T05:48:23;1.80;99.90
47252;DHT22;32991;51.374;11.586;2022-12-07T05:50:50;1.80;99.90
47252;DHT22;32991;51.374;11.586;2022-12-07T05:53:17;1.80;99.90
47252;DHT22;32991;51.374;11.586;2022-12-07T05:55:48;1.80;99.90
47252;DHT22;32991;51.374;11.586;2022-12-07T05:58:15;1.70;99.90
47252;DHT22;32991;51.374;11.586;2022-12-07T06:01:01;1.70;99.90
47252;DHT22;32991;51.374;11.586;2022-12-07T06:03:27;1.70;99.90
47252;DHT22;32991;51.374;11.586;2022-12-07T06:05:54;1.60;99.90
47252;DHT22;32991;51.374;11.586;2022-12-07T06:08:21;1.60;99.90
47252;DHT22;32991;51.374;11.586;2022-12-07T06:10:48;1.60;99.90
47252;DHT22;32991;51.374;11.586;2022-12-07T06:13:35;1.60;99.90
47252;DHT22;32991;51.374;11.586;2022-12-07T06:16:01;1.60;99.90
47252;DHT22;32991;51.374;11.586;2022-12-07T06:18:28;1.50;99.90
47252;DHT22;32991;51.374;11.586;2022-12-07T06:20:55;1.50;99.90
47252;DHT22;32991;51.374;11.586;2022-12-07T06:23:21;1.40;99.90
47252;DHT22;32991;51.374;11.586;2022-12-07T06:25:48;1.40;99.90
47252;DHT22;32991;51.374;11.586;2022-12-07T06:28:15;1.40;99.90
47252;DHT22;32991;51.374;11.586;2022-12-07T06:30:42;1.30;99.90
47252;DHT22;32991;51.374;11.586;2022-12-07T06:33:08;1.30;99.90
47252;DHT22;32991;51.374;11.586;2022-12-07T06:35:35;1.30;99.90
47252;DHT22;32991;51.374;11.586;2022-12-07T06:38:02;1.30;99.90
47252;DHT22;32991;51.374;11.586;2022-12-07T06:40:28;1.30;99.90
47252;DHT22;32991;51.374;11.586;2022-12-07T06:42:55;1.30;99.90
47252;DHT22;32991;51.374;11.586;2022-12-07T06:45:22;1.40;99.90
47252;DHT22;32991;51.374;11.586;2022-12-07T06:47:48;1.40;99.90
47252;DHT22;32991;51.374;11.586;2022-12-07T06:50:15;1.40;99.90
47252;DHT22;32991;51.374;11.586;2022-12-07T06:52:42;1.40;99.90
47252;DHT22;32991;51.374;11.586;2022-12-07T06:55:09;1.40;99.90
47252;DHT22;32991;51.374;11.586;2022-12-07T06:57:35;1.50;99.90
47252;DHT22;32991;51.374;11.586;2022-12-07T07:00:02;1.50;99.90
47252;DHT22;32991;51.374;11.586;2022-12-07T07:02:30;1.50;99.90
47252;DHT22;32991;51.374;11.586;2022-12-07T07:04:57;1.50;99.90
47252;DHT22;32991;51.374;11.586;2022-12-07T07:07:24;1.50;99.90
47252;DHT22;32991;51.374;11.586;2022-12-07T07:09:50;1.50;99.90
47252;DHT22;32991;51.374;11.586;2022-12-07T07:12:17;1.50;99.90
47252;DHT22;32991;51.374;11.586;2022-12-07T07:14:44;1.50;99.90
47252;DHT22;32991;51.374;11.586;2022-12-07T07:17:11;1.60;99.90
47252;DHT22;32991;51.374;11.586;2022-12-07T07:19:37;1.60;99.90
47252;DHT22;32991;51.374;11.586;2022-12-07T07:22:05;1.70;99.90
47252;DHT22;32991;51.374;11.586;2022-12-07T07:24:32;1.70;99.90
47252;DHT22;32991;51.374;11.586;2022-12-07T07:26:59;1.80;99.90
47252;DHT22;32991;51.374;11.586;2022-12-07T07:29:26;1.90;99.90
47252;DHT22;32991;51.374;11.586;2022-12-07T07:31:53;2.00;99.90
47252;DHT22;32991;51.374;11.586;2022-12-07T07:34:19;2.00;99.90
47252;DHT22;32991;51.374;11.586;2022-12-07T07:36:46;2.10;99.90
47252;DHT22;32991;51.374;11.586;2022-12-07T07:39:13;2.10;99.90
47252;DHT22;32991;51.374;11.586;2022-12-07T07:41:40;2.10;99.90
47252;DHT22;32991;51.374;11.586;2022-12-07T07:44:12;2.20;99.90
47252;DHT22;32991;51.374;11.586;2022-12-07T07:46:39;2.30;99.90
47252;DHT22;32991;51.374;11.586;2022-12-07T07:49:05;2.30;99.90
47252;DHT22;32991;51.374;11.586;2022-12-07T07:51:32;2.30;99.90
47252;DHT22;32991;51.374;11.586;2022-12-07T07:53:59;2.30;99.90
47252;DHT22;32991;51.374;11.586;2022-12-07T07:56:26;2.30;99.90
47252;DHT22;32991;51.374;11.586;2022-12-07T07:58:52;2.40;99.90
47252;DHT22;32991;51.374;11.586;2022-12-07T08:01:20;2.40;99.90
47252;DHT22;32991;51.374;11.586;2022-12-07T08:03:47;2.50;99.90
47252;DHT22;32991;51.374;11.586;2022-12-07T08:06:13;2.60;99.90
47252;DHT22;32991;51.374;11.586;2022-12-07T08:08:40;2.60;99.90
47252;DHT22;32991;51.374;11.586;2022-12-07T08:11:08;2.70;99.90
47252;DHT22;32991;51.374;11.586;2022-12-07T08:13:35;2.80;99.90
47252;DHT22;32991;51.374;11.586;2022-12-07T08:16:06;2.90;99.90
47252;DHT22;32991;51.374;11.586;2022-12-07T08:18:37;3.00;99.90
47252;DHT22;32991;51.374;11.586;2022-12-07T08:21:04;3.10;99.90
47252;DHT22;32991;51.374;11.586;2022-12-07T08:23:31;3.20;99.90
47252;DHT22;32991;51.374;11.586;2022-12-07T08:26:06;3.30;99.90
47252;DHT22;32991;51.374;11.586;2022-12-07T08:28:33;3.50;99.90
47252;DHT22;32991;51.374;11.586;2022-12-07T08:31:01;3.60;99.90
47252;DHT22;32991;51.374;11.586;2022-12-07T08:33:28;3.50;99.90
47252;DHT22;32991;51.374;11.586;2022-12-07T08:35:55;3.60;99.90
47252;DHT22;32991;51.374;11.586;2022-12-07T08:38:26;3.60;99.90
47252;DHT22;32991;51.374;11.586;2022-12-07T08:40:57;3.50;99.90
47252;DHT22;32991;51.374;11.586;2022-12-07T08:43:24;3.40;99.90
47252;DHT22;32991;51.374;11.586;2022-12-07T08:46:03;3.40;99.90
47252;DHT22;32991;51.374;11.586;2022-12-07T08:48:30;3.30;99.90
47252;DHT22;32991;51.374;11.586;2022-12-07T08:50:57;3.20;99.90
47252;DHT22;32991;51.374;11.586;2022-12-07T08:53:24;3.20;99.90
47252;DHT22;32991;51.374;11.586;2022-12-07T08:55:51;3.20;99.90
47252;DHT22;32991;51.374;11.586;2022-12-07T08:58:18;3.30;99.90
47252;DHT22;32991;51.374;11.586;2022-12-07T09:00:44;3.30;99.90
47252;DHT22;32991;51.374;11.586;2022-12-07T09:03:11;3.40;99.90
47252;DHT22;32991;51.374;11.586;2022-12-07T09:05:38;3.40;99.90
47252;DHT22;32991;51.374;11.586;2022-12-07T09:08:04;3.40;99.90
47252;DHT22;32991;51.374;11.586;2022-12-07T09:10:32;3.50;99.90
47252;DHT22;32991;51.374;11.586;2022-12-07T09:12:58;3.60;99.90
47252;DHT22;32991;51.374;11.586;2022-12-07T09:15:27;3.70;99.90
47252;DHT22;32991;51.374;11.586;2022-12-07T09:17:54;3.80;99.90
47252;DHT22;32991;51.374;11.586;2022-12-07T09:20:21;3.80;99.90
47252;DHT22;32991;51.374;11.586;2022-12-07T09:22:53;3.80;99.90
47252;DHT22;32991;51.374;11.586;2022-12-07T09:25:20;3.80;99.90
47252;DHT22;32991;51.374;11.586;2022-12-07T09:27:47;3.80;99.90
47252;DHT22;32991;51.374;11.586;2022-12-07T09:30:14;3.80;99.90
47252;DHT22;32991;51.374;11.586;2022-12-07T09:32:41;3.80;99.90
47252;DHT22;32991;51.374;11.586;2022-12-07T09:35:07;3.80;99.90
47252;DHT22;32991;51.374;11.586;2022-12-07T09:37:34;3.80;99.90
47252;DHT22;32991;51.374;11.586;2022-12-07T09:40:03;3.80;99.90
47252;DHT22;32991;51.374;11.586;2022-12-07T09:42:34;3.80;99.90
47252;DHT22;32991;51.374;11.586;2022-12-07T09:45:02;3.80;99.90
47252;DHT22;32991;51.374;11.586;2022-12-07T09:47:30;3.80;99.90
47252;DHT22;32991;51.374;11.586;2022-12-07T09:50:03;3.80;99.90
47252;DHT22;32991;51.374;11.586;2022-12-07T09:52:31;3.80;99.90
47252;DHT22;32991;51.374;11.586;2022-12-07T09:55:09;3.90;99.90
47252;DHT22;32991;51.374;11.586;2022-12-07T09:57:37;3.90;99.90
47252;DHT22;32991;51.374;11.586;2022-12-07T10:00:06;4.00;99.90
47252;DHT22;32991;51.374;11.586;2022-12-07T10:02:35;4.10;99.90
47252;DHT22;32991;51.374;11.586;2022-12-07T10:05:06;4.20;99.90
47252;DHT22;32991;51.374;11.586;2022-12-07T10:07:34;4.10;99.90
47252;DHT22;32991;51.374;11.586;2022-12-07T10:10:02;4.10;99.90
47252;DHT22;32991;51.374;11.586;2022-12-07T10:12:29;4.10;99.90
47252;DHT22;32991;51.374;11.586;2022-12-07T10:14:59;4.10;99.90
47252;DHT22;32991;51.374;11.586;2022-12-07T10:17:38;4.10;99.90
47252;DHT22;32991;51.374;11.586;2022-12-07T10:20:14;4.10;99.90
47252;DHT22;32991;51.374;11.586;2022-12-07T10:25:22;4.30;99.90
47252;DHT22;32991;51.374;11.586;2022-12-07T10:27:59;4.40;99.90
47252;DHT22;32991;51.374;11.586;2022-12-07T10:30:26;4.50;99.90
47252;DHT22;32991;51.374;11.586;2022-12-07T10:32:53;4.60;99.90
47252;DHT22;32991;51.374;11.586;2022-12-07T10:35:21;4.70;99.90
47252;DHT22;32991;51.374;11.586;2022-12-07T10:37:49;4.80;99.90
47252;DHT22;32991;51.374;11.586;2022-12-07T10:40:30;4.90;99.90
47252;DHT22;32991;51.374;11.586;2022-12-07T10:43:15;4.90;99.90
47252;DHT22;32991;51.374;11.586;2022-12-07T10:48:32;4.70;99.90
47252;DHT22;32991;51.374;11.586;2022-12-07T10:56:12;4.60;99.90
47252;DHT22;32991;51.374;11.586;2022-12-07T10:58:49;4.60;99.90
47252;DHT22;32991;51.374;11.586;2022-12-07T11:04:16;4.70;99.90
47252;DHT22;32991;51.374;11.586;2022-12-07T11:12:16;5.00;99.90
47252;DHT22;32991;51.374;11.586;2022-12-07T11:17:19;5.30;99.90
47252;DHT22;32991;51.374;11.586;2022-12-07T11:25:00;5.00;99.90
47252;DHT22;32991;51.374;11.586;2022-12-07T11:27:37;4.80;99.90
47252;DHT22;32991;51.374;11.586;2022-12-07T11:30:10;4.70;99.90
47252;DHT22;32991;51.374;11.586;2022-12-07T11:38:08;5.00;99.90
47252;DHT22;32991;51.374;11.586;2022-12-07T11:40:36;5.20;99.90
47252;DHT22;32991;51.374;11.586;2022-12-07T11:45:44;5.50;99.90
47252;DHT22;32991;51.374;11.586;2022-12-07T11:55:40;5.70;99.90
47252;DHT22;32991;51.374;11.586;2022-12-07T11:58:13;5.60;99.90
47252;DHT22;32991;51.374;11.586;2022-12-07T12:00:41;5.50;99.90
47252;DHT22;32991;51.374;11.586;2022-12-07T12:03:12;5.40;99.90
47252;DHT22;32991;51.374;11.586;2022-12-07T12:05:39;5.30;99.90
47252;DHT22;32991;51.374;11.586;2022-12-07T12:08:16;5.20;99.90
47252;DHT22;32991;51.374;11.586;2022-12-07T12:13:54;5.00;99.90
47252;DHT22;32991;51.374;11.586;2022-12-07T12:22:17;4.70;99.90
47252;DHT22;32991;51.374;11.586;2022-12-07T12:24:45;4.70;99.90
47252;DHT22;32991;51.374;11.586;2022-12-07T12:27:19;4.70;99.90
47252;DHT22;32991;51.374;11.586;2022-12-07T12:29:51;4.60;99.90
47252;DHT22;32991;51.374;11.586;2022-12-07T12:32:22;4.60;99.90
47252;DHT22;32991;51.374;11.586;2022-12-07T12:42:50;4.70;99.90
47252;DHT22;32991;51.374;11.586;2022-12-07T12:45:19;4.70;99.90
47252;DHT22;32991;51.374;11.586;2022-12-07T12:50:20;4.70;99.90
47252;DHT22;32991;51.374;11.586;2022-12-07T12:52:49;4.80;99.90
47252;DHT22;32991;51.374;11.586;2022-12-07T12:55:18;4.70;99.90
47252;DHT22;32991;51.374;11.586;2022-12-07T12:57:49;4.80;99.90
47252;DHT22;32991;51.374;11.586;2022-12-07T13:00:34;4.70;99.90
47252;DHT22;32991;51.374;11.586;2022-12-07T13:03:00;4.70;99.90
47252;DHT22;32991;51.374;11.586;2022-12-07T13:05:28;4.70;99.90
47252;DHT22;32991;51.374;11.586;2022-12-07T13:08:11;4.70;99.90
47252;DHT22;32991;51.374;11.586;2022-12-07T13:10:41;4.60;99.90
47252;DHT22;32991;51.374;11.586;2022-12-07T13:15:51;4.60;99.90
47252;DHT22;32991;51.374;11.586;2022-12-07T13:23:23;4.50;99.90
47252;DHT22;32991;51.374;11.586;2022-12-07T13:26:01;4.50;99.90
47252;DHT22;32991;51.374;11.586;2022-12-07T13:28:37;4.40;99.90
47252;DHT22;32991;51.374;11.586;2022-12-07T13:33:37;4.40;99.90
47252;DHT22;32991;51.374;11.586;2022-12-07T13:36:03;4.30;99.90
47252;DHT22;32991;51.374;11.586;2022-12-07T13:38:34;4.20;99.90
47252;DHT22;32991;51.374;11.586;2022-12-07T13:41:04;4.30;99.90
47252;DHT22;32991;51.374;11.586;2022-12-07T13:43:31;4.30;99.90
47252;DHT22;32991;51.374;11.586;2022-12-07T13:45:58;4.30;99.90
47252;DHT22;32991;51.374;11.586;2022-12-07T13:48:31;4.20;99.90
47252;DHT22;32991;51.374;11.586;2022-12-07T13:51:02;4.20;99.90
47252;DHT22;32991;51.374;11.586;2022-12-07T13:53:29;4.10;99.90
47252;DHT22;32991;51.374;11.586;2022-12-07T13:56:00;4.10;99.90
47252;DHT22;32991;51.374;11.586;2022-12-07T13:58:29;4.10;99.90
47252;DHT22;32991;51.374;11.586;2022-12-07T14:00:57;4.10;99.90
47252;DHT22;32991;51.374;11.586;2022-12-07T14:03:34;4.00;99.90
47252;DHT22;32991;51.374;11.586;2022-12-07T14:06:03;4.00;99.90
47252;DHT22;32991;51.374;11.586;2022-12-07T14:08:31;4.00;99.90
47252;DHT22;32991;51.374;11.586;2022-12-07T14:10:58;4.00;99.90
47252;DHT22;32991;51.374;11.586;2022-12-07T14:13:35;4.00;99.90
47252;DHT22;32991;51.374;11.586;2022-12-07T14:16:26;4.00;99.90
47252;DHT22;32991;51.374;11.586;2022-12-07T14:18:52;4.00;99.90
47252;DHT22;32991;51.374;11.586;2022-12-07T14:21:20;3.90;99.90
47252;DHT22;32991;51.374;11.586;2022-12-07T14:26:37;3.90;99.90
47252;DHT22;32991;51.374;11.586;2022-12-07T14:31:51;3.80;99.90
47252;DHT22;32991;51.374;11.586;2022-12-07T14:34:21;3.70;99.90
47252;DHT22;32991;51.374;11.586;2022-12-07T14:36:48;3.70;99.90
47252;DHT22;32991;51.374;11.586;2022-12-07T14:39:15;3.70;99.90
47252;DHT22;32991;51.374;11.586;2022-12-07T14:41:42;3.60;99.90
47252;DHT22;32991;51.374;11.586;2022-12-07T14:44:19;3.60;99.90
47252;DHT22;32991;51.374;11.586;2022-12-07T14:46:51;3.50;99.90
47252;DHT22;32991;51.374;11.586;2022-12-07T14:49:38;3.60;99.90
47252;DHT22;32991;51.374;11.586;2022-12-07T14:52:05;3.50;99.90
47252;DHT22;32991;51.374;11.586;2022-12-07T14:54:55;3.50;99.90
47252;DHT22;32991;51.374;11.586;2022-12-07T14:57:22;3.50;99.90
47252;DHT22;32991;51.374;11.586;2022-12-07T14:59:49;3.40;99.90
47252;DHT22;32991;51.374;11.586;2022-12-07T15:02:16;3.40;99.90
47252;DHT22;32991;51.374;11.586;2022-12-07T15:04:43;3.40;99.90
47252;DHT22;32991;51.374;11.586;2022-12-07T15:07:15;3.30;99.90
47252;DHT22;32991;51.374;11.586;2022-12-07T15:09:44;3.30;99.90
47252;DHT22;32991;51.374;11.586;2022-12-07T15:12:11;3.20;99.90
47252;DHT22;32991;51.374;11.586;2022-12-07T15:14:38;3.20;99.90
47252;DHT22;32991;51.374;11.586;2022-12-07T15:17:05;3.20;99.90
47252;DHT22;32991;51.374;11.586;2022-12-07T15:19:37;3.20;99.90
47252;DHT22;32991;51.374;11.586;2022-12-07T15:22:04;3.10;99.90
47252;DHT22;32991;51.374;11.586;2022-12-07T15:24:31;3.10;99.90
47252;DHT22;32991;51.374;11.586;2022-12-07T15:26:57;3.10;99.90
47252;DHT22;32991;51.374;11.586;2022-12-07T15:29:24;3.10;99.90
47252;DHT22;32991;51.374;11.586;2022-12-07T15:31:51;3.10;99.90
47252;DHT22;32991;51.374;11.586;2022-12-07T15:34:24;3.10;99.90
47252;DHT22;32991;51.374;11.586;2022-12-07T15:36:51;3.20;99.90
47252;DHT22;32991;51.374;11.586;2022-12-07T15:39:18;3.10;99.90
47252;DHT22;32991;51.374;11.586;2022-12-07T15:41:45;3.10;99.90
47252;DHT22;32991;51.374;11.586;2022-12-07T15:44:12;3.10;99.90
47252;DHT22;32991;51.374;11.586;2022-12-07T15:46:58;3.10;99.90
47252;DHT22;32991;51.374;11.586;2022-12-07T15:49:25;3.10;99.90
47252;DHT22;32991;51.374;11.586;2022-12-07T15:51:52;3.10;99.90
47252;DHT22;32991;51.374;11.586;2022-12-07T15:54:22;3.10;99.90
47252;DHT22;32991;51.374;11.586;2022-12-07T15:56:49;3.10;99.90
47252;DHT22;32991;51.374;11.586;2022-12-07T15:59:16;3.00;99.90
47252;DHT22;32991;51.374;11.586;2022-12-07T16:01:43;3.10;99.90
47252;DHT22;32991;51.374;11.586;2022-12-07T16:04:10;3.00;99.90
47252;DHT22;32991;51.374;11.586;2022-12-07T16:06:37;3.00;99.90
47252;DHT22;32991;51.374;11.586;2022-12-07T16:09:04;3.00;99.90
47252;DHT22;32991;51.374;11.586;2022-12-07T16:11:31;3.00;99.90
47252;DHT22;32991;51.374;11.586;2022-12-07T16:13:58;3.00;99.90
47252;DHT22;32991;51.374;11.586;2022-12-07T16:16:25;3.00;99.90
47252;DHT22;32991;51.374;11.586;2022-12-07T16:18:52;3.00;99.90
47252;DHT22;32991;51.374;11.586;2022-12-07T16:21:20;3.00;99.90
47252;DHT22;32991;51.374;11.586;2022-12-07T16:23:50;3.00;99.90
47252;DHT22;32991;51.374;11.586;2022-12-07T16:26:18;3.00;99.90
47252;DHT22;32991;51.374;11.586;2022-12-07T16:28:47;3.00;99.90
47252;DHT22;32991;51.374;11.586;2022-12-07T16:31:15;3.00;99.90
47252;DHT22;32991;51.374;11.586;2022-12-07T16:33:42;3.00;99.90
47252;DHT22;32991;51.374;11.586;2022-12-07T16:36:10;3.00;99.90
47252;DHT22;32991;51.374;11.586;2022-12-07T16:38:37;3.10;99.90
47252;DHT22;32991;51.374;11.586;2022-12-07T16:41:05;3.10;99.90
47252;DHT22;32991;51.374;11.586;2022-12-07T16:43:32;3.10;99.90
47252;DHT22;32991;51.374;11.586;2022-12-07T16:45:59;3.00;99.90
47252;DHT22;32991;51.374;11.586;2022-12-07T16:48:25;3.00;99.90
47252;DHT22;32991;51.374;11.586;2022-12-07T16:50:52;3.00;99.90
47252;DHT22;32991;51.374;11.586;2022-12-07T16:53:20;2.90;99.90
47252;DHT22;32991;51.374;11.586;2022-12-07T16:55:47;2.90;99.90
47252;DHT22;32991;51.374;11.586;2022-12-07T16:58:15;2.90;99.90
47252;DHT22;32991;51.374;11.586;2022-12-07T17:00:42;2.90;99.90
47252;DHT22;32991;51.374;11.586;2022-12-07T17:03:09;2.80;99.90
47252;DHT22;32991;51.374;11.586;2022-12-07T17:05:39;2.80;99.90
47252;DHT22;32991;51.374;11.586;2022-12-07T17:08:06;2.80;99.90
47252;DHT22;32991;51.374;11.586;2022-12-07T17:10:33;2.80;99.90
47252;DHT22;32991;51.374;11.586;2022-12-07T17:13:02;2.80;99.90
47252;DHT22;32991;51.374;11.586;2022-12-07T17:15:29;2.70;99.90
47252;DHT22;32991;51.374;11.586;2022-12-07T17:17:56;2.70;99.90
47252;DHT22;32991;51.374;11.586;2022-12-07T17:20:25;2.80;99.90
47252;DHT22;32991;51.374;11.586;2022-12-07T17:22:52;2.80;99.90
47252;DHT22;32991;51.374;11.586;2022-12-07T17:25:19;2.80;99.90
47252;DHT22;32991;51.374;11.586;2022-12-07T17:27:46;2.80;99.90
47252;DHT22;32991;51.374;11.586;2022-12-07T17:30:13;2.80;99.90
47252;DHT22;32991;51.374;11.586;2022-12-07T17:32:40;2.80;99.90